Time;durP1;ratioP1;P1;durP2;ratioP2;P2;SDS_P1;SDS_P2;PMS_P1;PMS_P2;Temp;Humidity;BMP_temperature;BMP_pressure;BME280_temperature;BME280_humidity;BME280_pressure;Samples;Min_cycle;Max_cycle;Signal;HPM_P1;HPM_P2
2023/05/06 00:01:35;;;;;;;5.47;5.00;;;;;;;10.65;100.00;101684.22;6099935;23;20026;-82
2023/05/06 00:04:01;;;;;;;7.00;5.72;;;;;;;10.62;100.00;101683.13;6099938;23;20074;-82
2023/05/06 00:06:28;;;;;;;5.18;4.78;;;;;;;10.57;100.00;101682.88;6100518;23;20050;-82
2023/05/06 00:08:55;;;;;;;5.35;4.95;;;;;;;10.53;100.00;101684.88;6099703;23;20025;-82
2023/05/06 00:11:21;;;;;;;5.47;5.00;;;;;;;10.52;100.00;101684.13;6099968;23;20468;-82
2023/05/06 00:13:48;;;;;;;5.47;5.07;;;;;;;10.53;100.00;101682.22;6100286;23;20019;-82
2023/05/06 00:16:14;;;;;;;7.22;5.43;;;;;;;10.52;100.00;101678.03;6100743;23;20027;-82
2023/05/06 00:18:41;;;;;;;11.23;5.95;;;;;;;10.53;100.00;101676.88;6100209;23;20030;-83
2023/05/06 00:21:08;;;;;;;8.68;6.28;;;;;;;10.51;100.00;101679.22;6099677;23;20438;-82
2023/05/06 00:23:34;;;;;;;7.20;6.32;;;;;;;10.52;100.00;101670.06;6100271;23;20018;-83
2023/05/06 00:26:01;;;;;;;7.45;6.82;;;;;;;10.56;100.00;101670.72;6099074;23;20094;-83
2023/05/06 00:28:27;;;;;;;7.82;7.07;;;;;;;10.56;100.00;101681.38;6100731;23;20019;-82
2023/05/06 00:30:54;;;;;;;8.40;7.32;;;;;;;10.58;100.00;101679.06;6099949;23;20015;-82
2023/05/06 00:33:20;;;;;;;8.07;7.22;;;;;;;10.60;100.00;101676.72;6100092;23;20026;-82
2023/05/06 00:35:47;;;;;;;9.68;8.02;;;;;;;10.62;100.00;101672.47;6100014;23;20019;-82
2023/05/06 00:38:14;;;;;;;8.73;7.82;;;;;;;10.62;100.00;101671.72;6099810;23;20019;-82
2023/05/06 00:40:41;;;;;;;9.73;7.78;;;;;;;10.65;100.00;101673.56;6073746;23;20014;-82
2023/05/06 00:43:08;;;;;;;8.68;7.82;;;;;;;10.66;100.00;101662.50;6099426;23;20019;-82
2023/05/06 00:45:35;;;;;;;8.98;8.10;;;;;;;10.66;100.00;101662.50;6100366;23;20029;-82
2023/05/06 00:48:03;;;;;;;12.65;8.40;;;;;;;10.64;100.00;101664.81;6099328;23;20423;-82
2023/05/06 00:50:32;;;;;;;9.18;8.27;;;;;;;10.62;100.00;101671.72;6100364;23;20105;-82
2023/05/06 00:52:59;;;;;;;10.73;9.50;;;;;;;10.61;100.00;101665.66;6072593;23;20019;-81
2023/05/06 00:55:26;;;;;;;9.10;8.15;;;;;;;10.62;100.00;101674.41;6100174;23;20018;-81
2023/05/06 00:57:53;;;;;;;9.05;8.18;;;;;;;10.62;100.00;101675.16;6098958;23;20026;-82
2023/05/06 01:00:20;;;;;;;10.25;8.32;;;;;;;10.65;100.00;101670.91;6099549;23;20019;-81
2023/05/06 01:02:47;;;;;;;8.98;8.07;;;;;;;10.67;100.00;101671.22;6099408;23;20019;-81
2023/05/06 01:05:16;;;;;;;11.30;8.65;;;;;;;10.68;100.00;101662.81;6073823;23;20027;-82
2023/05/06 01:07:46;;;;;;;11.13;8.45;;;;;;;10.68;100.00;101656.75;6073393;23;20488;-81
2023/05/06 01:10:23;;;;;;;10.95;8.68;;;;;;;10.69;100.00;101658.25;6099641;23;20019;-82
2023/05/06 01:13:04;;;;;;;11.68;8.60;;;;;;;10.69;100.00;101658.25;6073952;23;20030;-82
2023/05/06 01:15:44;;;;;;;9.55;8.55;;;;;;;10.68;100.00;101654.09;6098513;23;20106;-81
2023/05/06 01:18:15;;;;;;;9.70;8.52;;;;;;;10.65;100.00;101650.34;6099671;23;20015;-81
2023/05/06 01:20:50;;;;;;;13.02;8.63;;;;;;;10.65;100.00;101647.69;6100143;23;20090;-81
2023/05/06 01:23:19;;;;;;;11.23;8.98;;;;;;;10.61;100.00;101656.91;6098774;23;20022;-82
2023/05/06 01:25:45;;;;;;;9.50;8.52;;;;;;;10.56;100.00;101657.41;6073526;23;20030;-81
2023/05/06 01:28:12;;;;;;;10.48;7.97;;;;;;;10.53;100.00;101647.59;6099510;23;20075;-81
2023/05/06 01:31:13;;;;;;;10.85;8.65;;;;;;;10.53;100.00;101648.34;6074735;23;20025;-81
2023/05/06 01:33:53;;;;;;;11.57;8.45;;;;;;;10.47;100.00;101644.69;6077239;23;20038;-81
2023/05/06 01:36:40;;;;;;;10.00;8.27;;;;;;;10.43;100.00;101641.34;6099412;23;20019;-81
2023/05/06 01:39:07;;;;;;;9.40;8.45;;;;;;;10.40;100.00;101647.50;6098780;23;20026;-81
2023/05/06 01:41:37;;;;;;;11.80;8.52;;;;;;;10.36;100.00;101641.53;6073964;23;20106;-81
2023/05/06 01:44:05;;;;;;;9.85;8.85;;;;;;;10.31;100.00;101634.81;6072901;23;20023;-81
2023/05/06 01:46:33;;;;;;;11.90;8.45;;;;;;;10.28;100.00;101638.28;6099638;23;20114;-81
2023/05/06 01:49:03;;;;;;;12.77;8.65;;;;;;;10.25;100.00;101641.78;6073145;23;20552;-81
2023/05/06 01:51:33;;;;;;;9.43;8.45;;;;;;;10.17;100.00;101640.41;6099149;23;20019;-81
2023/05/06 01:54:01;;;;;;;9.70;8.45;;;;;;;10.12;100.00;101646.22;6049584;23;20292;-81
2023/05/06 01:56:30;;;;;;;9.65;8.63;;;;;;;10.09;100.00;101649.69;6099536;23;20357;-83
2023/05/06 01:58:58;;;;;;;9.55;8.15;;;;;;;10.07;100.00;101648.63;6073158;23;20098;-80
2023/05/06 02:01:25;;;;;;;10.48;7.38;;;;;;;10.04;100.00;101644.88;6099371;23;20026;-82
2023/05/06 02:03:52;;;;;;;8.48;7.50;;;;;;;9.96;100.00;101651.53;6070048;23;20023;-83
2023/05/06 02:06:19;;;;;;;7.47;6.88;;;;;;;9.96;100.00;101649.63;6043737;23;20027;-82
2023/05/06 02:08:45;;;;;;;8.98;7.10;;;;;;;9.89;100.00;101651.66;6070082;23;20019;-82
2023/05/06 02:11:17;;;;;;;7.38;6.68;;;;;;;9.88;100.00;101642.19;6045489;23;20031;-83
2023/05/06 02:13:45;;;;;;;8.25;7.15;;;;;;;9.83;100.00;101646.09;6022340;23;20446;-83
2023/05/06 02:16:12;;;;;;;6.72;6.13;;;;;;;9.82;100.00;101654.47;6071661;23;20023;-83
2023/05/06 02:18:38;;;;;;;6.50;5.90;;;;;;;9.80;100.00;101656.78;6046084;23;20025;-82
2023/05/06 02:21:05;;;;;;;6.82;6.18;;;;;;;9.75;100.00;101657.28;6044801;23;20465;-83
2023/05/06 02:23:31;;;;;;;6.43;5.88;;;;;;;9.70;100.00;101661.16;6071624;23;20022;-83
2023/05/06 02:25:58;;;;;;;6.60;6.10;;;;;;;9.64;100.00;101666.22;6070814;23;20024;-83
2023/05/06 02:28:24;;;;;;;6.18;5.55;;;;;;;9.59;100.00;101664.06;6071963;23;20027;-83
2023/05/06 02:30:57;;;;;;;8.68;6.07;;;;;;;9.60;100.00;101664.78;6071442;23;20462;-83
2023/05/06 02:33:24;;;;;;;6.38;5.82;;;;;;;9.53;100.00;101659.63;6071881;23;20019;-83
2023/05/06 02:35:50;;;;;;;6.40;5.90;;;;;;;9.53;100.00;101655.06;6045139;23;20588;-83
2023/05/06 02:38:17;;;;;;;7.10;5.70;;;;;;;9.49;100.00;101656.28;6071293;23;20027;-82
2023/05/06 02:40:44;;;;;;;6.40;5.90;;;;;;;9.48;100.00;101658.19;6045764;23;20027;-82
2023/05/06 02:43:11;;;;;;;5.80;5.30;;;;;;;9.45;100.00;101656.34;6071233;23;20028;-82
2023/05/06 02:45:38;;;;;;;6.38;5.78;;;;;;;9.39;100.00;101665.94;6071604;23;20500;-83
2023/05/06 02:48:05;;;;;;;6.18;5.68;;;;;;;9.35;100.00;101662.59;6045563;23;20020;-83
2023/05/06 02:50:31;;;;;;;6.07;5.63;;;;;;;9.31;100.00;101657.34;6070957;23;20046;-82
2023/05/06 02:52:58;;;;;;;6.40;5.80;;;;;;;9.30;100.00;101655.09;6070823;23;20542;-83
2023/05/06 02:55:24;;;;;;;5.75;5.32;;;;;;;9.27;100.00;101661.22;6045797;23;20458;-83
2023/05/06 02:57:51;;;;;;;6.10;5.50;;;;;;;9.25;100.00;101660.88;6045414;23;20085;-84
2023/05/06 03:00:17;;;;;;;10.48;6.03;;;;;;;9.23;100.00;101660.53;6071070;23;20023;-83
2023/05/06 03:02:44;;;;;;;8.40;5.68;;;;;;;9.18;100.00;101658.38;6061177;23;20015;-83
2023/05/06 03:05:11;;;;;;;5.93;5.43;;;;;;;9.13;100.00;101666.81;6099674;23;20019;-84
2023/05/06 03:07:38;;;;;;;6.38;5.75;;;;;;;9.11;100.00;101663.81;6100711;23;20070;-83
2023/05/06 03:10:05;;;;;;;5.80;5.28;;;;;;;9.08;100.00;101664.63;6073892;23;20049;-83
2023/05/06 03:12:34;;;;;;;6.05;5.60;;;;;;;9.07;100.00;101653.25;6074481;23;20039;-83
2023/05/06 03:15:01;;;;;;;6.25;5.65;;;;;;;9.07;100.00;101657.81;6074079;23;20023;-83
2023/05/06 03:17:27;;;;;;;6.43;5.82;;;;;;;9.06;100.00;101651.00;6074909;23;20457;-84
2023/05/06 03:19:54;;;;;;;6.00;5.50;;;;;;;9.01;100.00;101650.31;6073621;23;20420;-83
2023/05/06 03:22:21;;;;;;;6.10;5.60;;;;;;;8.92;100.00;101647.41;6074391;23;20026;-83
2023/05/06 03:24:50;;;;;;;6.40;5.90;;;;;;;8.94;100.00;101649.69;6074011;23;20023;-83
2023/05/06 03:27:17;;;;;;;6.43;5.75;;;;;;;8.96;100.00;101647.38;6074415;23;20030;-83
2023/05/06 03:29:46;;;;;;;7.35;5.50;;;;;;;8.94;100.00;101649.69;6074049;23;20106;-83
2023/05/06 03:32:14;;;;;;;5.90;5.43;;;;;;;8.95;100.00;101654.59;6074006;23;20027;-83
2023/05/06 03:34:42;;;;;;;6.25;5.70;;;;;;;8.90;100.00;101649.72;6074046;23;20019;-83
2023/05/06 03:37:13;;;;;;;7.45;6.65;;;;;;;8.89;100.00;101652.78;6073796;23;20484;-83
2023/05/06 03:39:46;;;;;;;6.90;6.25;;;;;;;8.88;100.00;101651.28;6074140;23;20022;-83
2023/05/06 03:42:13;;;;;;;9.48;6.97;;;;;;;8.84;100.00;101654.00;6073684;23;20019;-83
2023/05/06 03:44:40;;;;;;;11.32;7.35;;;;;;;8.82;100.00;101650.25;6100468;23;20098;-83
2023/05/06 03:47:07;;;;;;;13.77;8.35;;;;;;;8.80;100.00;101655.97;6073133;23;20046;-83
2023/05/06 03:49:34;;;;;;;19.75;8.38;;;;;;;8.78;100.00;101654.91;6074416;23;20025;-83
2023/05/06 03:52:01;;;;;;;15.73;7.88;;;;;;;8.77;100.00;101661.34;6073686;23;20114;-83
2023/05/06 03:54:28;;;;;;;19.20;8.02;;;;;;;8.75;100.00;101661.00;6074312;23;20029;-83
2023/05/06 03:56:55;;;;;;;30.30;8.10;;;;;;;8.71;100.00;101652.34;6074223;23;20548;-83
2023/05/06 03:59:21;;;;;;;9.48;7.70;;;;;;;8.69;100.00;101653.50;6100211;23;20018;-83
2023/05/06 04:01:50;;;;;;;29.27;7.97;;;;;;;8.68;100.00;101654.66;6073246;23;20023;-82
2023/05/06 04:04:16;;;;;;;16.38;7.50;;;;;;;8.68;100.00;101652.00;6099926;23;20055;-82
2023/05/06 04:06:43;;;;;;;17.20;7.97;;;;;;;8.69;100.00;101652.75;6074766;23;20023;-82
2023/05/06 04:09:09;;;;;;;19.42;8.38;;;;;;;8.68;100.00;101659.97;6100138;23;20075;-83
2023/05/06 04:11:38;;;;;;;8.90;7.65;;;;;;;8.69;100.00;101660.72;6074211;23;20043;-82
2023/05/06 04:14:06;;;;;;;18.63;8.75;;;;;;;8.70;100.00;101659.56;6073572;23;20030;-83
2023/05/06 04:16:33;;;;;;;16.67;8.52;;;;;;;8.71;100.00;101661.06;6073464;23;20045;-81
2023/05/06 04:19:00;;;;;;;8.95;8.05;;;;;;;8.75;100.00;101653.03;6073751;23;20019;-81
2023/05/06 04:21:28;;;;;;;8.73;7.35;;;;;;;8.78;100.00;101646.94;6100508;23;20019;-81
2023/05/06 04:24:01;;;;;;;10.85;8.73;;;;;;;8.82;100.00;101653.66;6073471;23;20051;-82
2023/05/06 04:26:33;;;;;;;10.88;8.50;;;;;;;8.86;100.00;101642.97;6074327;23;20015;-82
2023/05/06 04:29:00;;;;;;;8.70;7.75;;;;;;;8.89;100.00;101650.13;6049833;23;20023;-82
2023/05/06 04:31:29;;;;;;;10.00;8.45;;;;;;;8.94;100.00;101649.69;6073483;23;20055;-82
2023/05/06 04:34:01;;;;;;;9.27;8.32;;;;;;;8.98;100.00;101656.44;6073000;23;20441;-82
2023/05/06 04:36:29;;;;;;;11.23;8.85;;;;;;;8.99;100.00;101654.53;6098551;23;20177;-83
2023/05/06 04:39:16;;;;;;;9.27;8.13;;;;;;;9.02;100.00;101665.09;6098595;23;20185;-82
2023/05/06 04:41:44;;;;;;;20.70;9.63;;;;;;;9.06;100.00;101680.22;6074092;23;20433;-82
2023/05/06 04:44:15;;;;;;;16.15;9.57;;;;;;;9.08;100.00;101670.69;6073612;23;20866;-82
2023/05/06 04:46:44;;;;;;;21.85;10.48;;;;;;;9.14;100.00;101674.38;6073610;23;20449;-82
2023/05/06 04:49:11;;;;;;;21.20;10.63;;;;;;;9.19;100.00;101671.25;6074172;23;20093;-82
2023/05/06 04:51:38;;;;;;;48.30;10.40;;;;;;;9.21;100.00;101676.88;6074060;23;20090;-82
2023/05/06 04:54:04;;;;;;;18.75;10.13;;;;;;;9.27;100.00;101679.81;6099392;23;20023;-82
2023/05/06 04:56:32;;;;;;;42.88;10.50;;;;;;;9.34;100.00;101682.34;6073828;23;20030;-81
2023/05/06 04:58:58;;;;;;;46.00;11.38;;;;;;;9.36;100.00;101686.13;6073336;23;20026;-82
2023/05/06 05:01:26;;;;;;;61.95;10.95;;;;;;;9.40;100.00;101685.28;6073086;23;20468;-81
2023/05/06 05:03:52;;;;;;;41.85;11.13;;;;;;;9.45;100.00;101687.50;6099472;23;20026;-82
2023/05/06 05:06:20;;;;;;;63.65;11.20;;;;;;;9.52;100.00;101688.09;6073661;23;20040;-81
2023/05/06 05:08:47;;;;;;;28.95;10.93;;;;;;;9.59;100.00;101695.19;6072668;23;20025;-82
2023/05/06 05:11:13;;;;;;;62.78;10.95;;;;;;;9.61;100.00;101693.59;6073523;23;20051;-82
2023/05/06 05:13:41;;;;;;;24.23;10.57;;;;;;;9.69;100.00;101700.28;6099914;23;20027;-82
2023/05/06 05:16:07;;;;;;;40.78;10.13;;;;;;;9.79;100.00;101706.56;6072683;23;20463;-82
2023/05/06 05:18:37;;;;;;;83.38;10.38;;;;;;;9.82;100.00;101707.66;6073626;23;20053;-81
2023/05/06 05:21:10;;;;;;;30.10;10.35;;;;;;;9.92;100.00;101715.44;6073302;23;20480;-82
2023/05/06 05:23:37;;;;;;;30.90;9.63;;;;;;;10.11;100.00;101708.56;6073914;23;20034;-82
2023/05/06 05:26:03;;;;;;;38.55;10.70;;;;;;;10.28;100.00;101710.16;6099074;23;20027;-82
2023/05/06 05:28:31;;;;;;;27.98;9.80;;;;;;;10.50;100.00;101707.75;6073357;23;20026;-82
2023/05/06 05:31:04;;;;;;;16.48;10.25;;;;;;;10.75;100.00;101704.53;6072996;23;20029;-82
2023/05/06 05:33:33;;;;;;;38.53;10.32;;;;;;;10.86;100.00;101705.00;6073942;23;20030;-82
2023/05/06 05:36:03;;;;;;;20.88;10.25;;;;;;;10.88;100.00;101709.91;6072954;23;20019;-82
2023/05/06 05:38:30;;;;;;;12.60;10.05;;;;;;;10.88;100.00;101707.25;6073346;23;20485;-82
2023/05/06 05:40:58;;;;;;;13.02;10.38;;;;;;;10.88;100.00;101704.59;6072267;23;20027;-82
2023/05/06 05:43:25;;;;;;;16.75;11.43;;;;;;;10.93;100.00;101704.81;6072956;23;20019;-82
2023/05/06 05:45:53;;;;;;;13.88;10.57;;;;;;;11.00;100.00;101702.00;6074308;23;20430;-82
2023/05/06 05:48:20;;;;;;;11.38;10.32;;;;;;;11.05;100.00;101710.66;6050919;23;20019;-83
2023/05/06 05:50:47;;;;;;;15.48;11.93;;;;;;;11.09;100.00;101711.31;6074793;23;20023;-82
2023/05/06 05:53:13;;;;;;;15.88;13.70;;;;;;;11.12;100.00;101710.47;6100273;23;20357;-82
2023/05/06 05:55:40;;;;;;;16.10;14.30;;;;;;;11.12;100.00;101713.13;6100763;23;20023;-82
2023/05/06 05:58:08;;;;;;;16.15;13.77;;;;;;;11.14;100.00;101708.88;6074584;23;20472;-83
2023/05/06 06:00:35;;;;;;;15.60;13.98;;;;;;;11.15;100.00;101710.38;6102271;23;20409;-82
2023/05/06 06:03:09;;;;;;;16.92;14.70;;;;;;;11.21;100.00;101715.94;6100356;23;20038;-82
2023/05/06 06:05:37;;;;;;;15.57;13.98;;;;;;;11.25;100.00;101716.59;6075109;23;20086;-85
2023/05/06 06:08:04;;;;;;;15.52;13.93;;;;;;;11.28;100.00;101711.19;6074020;23;20023;-84
2023/05/06 06:10:31;;;;;;;18.33;14.98;;;;;;;11.33;100.00;101715.25;6074737;23;20381;-84
2023/05/06 06:13:01;;;;;;;16.13;14.43;;;;;;;11.35;100.00;101715.56;6073296;23;20101;-84
2023/05/06 06:15:31;;;;;;;16.75;14.68;;;;;;;11.40;100.00;101707.06;6074812;23;20053;-85
2023/05/06 06:17:57;;;;;;;16.08;14.43;;;;;;;11.48;100.00;101716.38;6074388;23;20023;-84
2023/05/06 06:20:26;;;;;;;17.38;15.55;;;;;;;11.54;100.00;101717.38;6074899;23;20090;-83
2023/05/06 06:22:52;;;;;;;16.80;14.50;;;;;;;11.59;100.00;101721.44;6099716;23;20340;-88
2023/05/06 06:25:20;;;;;;;16.48;14.88;;;;;;;11.62;100.00;101731.97;6050459;23;20026;-79
2023/05/06 06:27:46;;;;;;;15.95;14.25;;;;;;;11.69;100.00;101723.03;6099463;23;20449;-81
2023/05/06 06:30:13;;;;;;;16.67;14.98;;;;;;;11.76;100.00;101719.44;6074259;23;20460;-83
2023/05/06 06:32:48;;;;;;;18.85;15.00;;;;;;;11.81;100.00;101722.38;6100826;23;20022;-84
2023/05/06 06:35:15;;;;;;;17.23;14.93;;;;;;;11.89;100.00;101720.25;6051253;23;20019;-82
2023/05/06 06:37:42;;;;;;;16.58;14.80;;;;;;;11.93;100.00;101724.31;6075443;23;20053;-83
2023/05/06 06:40:09;;;;;;;16.95;15.20;;;;;;;11.99;100.00;101719.94;6100969;23;20449;-84
2023/05/06 06:42:36;;;;;;;17.48;15.60;;;;;;;12.06;100.00;101724.31;6100439;23;20058;-84
2023/05/06 06:45:22;;;;;;;16.20;14.63;;;;;;;12.16;100.00;101725.94;6100509;23;20377;-83
2023/05/06 06:47:49;;;;;;;16.65;14.70;;;;;;;12.21;100.00;101727.31;6100189;23;20030;-83
2023/05/06 06:50:15;;;;;;;18.23;16.13;;;;;;;12.28;100.00;101730.53;6099965;23;20019;-83
2023/05/06 06:52:42;;;;;;;18.00;16.10;;;;;;;12.32;100.00;101733.84;6100895;23;20817;-82
2023/05/06 06:55:09;;;;;;;17.52;15.73;;;;;;;12.35;100.00;101733.00;6100752;23;20021;-81
2023/05/06 06:57:36;;;;;;;22.63;15.88;;;;;;;12.40;100.00;101736.28;6100584;23;20146;-83
2023/05/06 07:00:04;;;;;;;18.20;15.57;;;;;;;12.42;100.00;101744.63;6075360;23;20014;-82
2023/05/06 07:02:30;;;;;;;19.50;16.55;;;;;;;12.48;100.00;101740.25;6071044;23;20462;-81
2023/05/06 07:04:57;;;;;;;21.95;16.70;;;;;;;12.57;100.00;101745.69;6071682;23;20019;-81
2023/05/06 07:07:23;;;;;;;21.73;15.93;;;;;;;12.69;100.00;101739.59;6070732;23;20027;-83
2023/05/06 07:09:50;;;;;;;19.50;16.35;;;;;;;12.90;100.00;101738.91;6072287;23;20446;-81
2023/05/06 07:12:16;;;;;;;25.90;16.92;;;;;;;12.97;100.00;101736.00;6071590;23;20023;-82
2023/05/06 07:14:43;;;;;;;18.83;16.58;;;;;;;13.15;100.00;101740.78;6070709;23;20442;-81
2023/05/06 07:17:10;;;;;;;18.88;16.95;;;;;;;13.32;100.00;101744.06;6070211;23;20469;-81
2023/05/06 07:19:36;;;;;;;21.52;16.40;;;;;;;13.54;100.00;101742.16;6046610;23;20416;-82
2023/05/06 07:22:03;;;;;;;18.48;16.58;;;;;;;13.80;100.00;101745.44;6071884;23;20023;-82
2023/05/06 07:24:29;;;;;;;19.17;16.30;;;;;;;14.00;100.00;101750.44;6071670;23;20016;-83
2023/05/06 07:26:56;;;;;;;19.52;16.83;;;;;;;14.23;100.00;101751.91;6072445;23;20015;-83
2023/05/06 07:29:23;;;;;;;19.38;16.10;;;;;;;14.26;99.56;101751.78;6070946;23;20019;-84
2023/05/06 07:31:49;;;;;;;18.83;16.80;;;;;;;14.30;99.40;101757.00;6073294;23;20023;-85
2023/05/06 07:34:16;;;;;;;17.88;16.10;;;;;;;14.31;99.13;101751.22;6071075;23;20042;-87
2023/05/06 07:36:43;;;;;;;19.40;16.65;;;;;;;14.42;98.69;101753.50;6072694;23;20050;-83
2023/05/06 07:39:11;;;;;;;18.13;16.23;;;;;;;14.42;98.41;101742.78;6071416;23;20531;-83
2023/05/06 07:41:37;;;;;;;18.75;16.75;;;;;;;14.51;97.29;101745.50;6071564;23;20030;-83
2023/05/06 07:44:05;;;;;;;20.20;17.30;;;;;;;14.66;96.52;101743.00;6071792;23;20026;-84
2023/05/06 07:46:32;;;;;;;18.48;16.45;;;;;;;14.84;95.43;101751.06;6070507;23;20019;-85
2023/05/06 07:48:58;;;;;;;20.05;17.27;;;;;;;15.04;95.37;101755.28;6072030;23;20086;-84
2023/05/06 07:51:25;;;;;;;18.83;16.88;;;;;;;15.17;93.78;101763.94;6071217;23;20542;-83
2023/05/06 07:53:52;;;;;;;18.52;16.52;;;;;;;15.55;94.24;101750.81;6070138;23;20046;-83
2023/05/06 07:56:18;;;;;;;19.10;16.67;;;;;;;15.88;92.35;101758.97;6070468;23;20046;-84
2023/05/06 07:58:45;;;;;;;18.65;16.48;;;;;;;16.04;90.67;101755.19;6069922;23;20016;-83
2023/05/06 08:01:11;;;;;;;19.58;17.48;;;;;;;16.05;90.51;101759.38;6069426;23;20031;-83
2023/05/06 08:03:37;;;;;;;19.25;17.25;;;;;;;16.17;88.39;101761.13;6095284;23;20014;-82
2023/05/06 08:06:05;;;;;;;17.13;15.43;;;;;;;16.36;89.64;101759.13;6098213;23;20397;-83
2023/05/06 08:08:32;;;;;;;18.33;16.35;;;;;;;16.42;88.59;101757.28;6098340;23;20026;-83
2023/05/06 08:10:58;;;;;;;17.85;15.45;;;;;;;16.53;87.94;101770.97;6099175;23;20022;-83
2023/05/06 08:13:25;;;;;;;20.20;17.27;;;;;;;16.60;86.57;101767.22;6101157;23;20019;-83
2023/05/06 08:15:52;;;;;;;18.52;16.50;;;;;;;16.53;87.69;101770.22;6099735;23;20030;-82
2023/05/06 08:18:19;;;;;;;19.45;16.95;;;;;;;16.61;87.84;101766.00;6100592;23;20023;-82
2023/05/06 08:20:48;;;;;;;18.45;16.27;;;;;;;16.63;86.76;101774.38;6100930;23;20493;-82
2023/05/06 08:23:15;;;;;;;18.83;16.77;;;;;;;16.78;87.20;101775.22;6100190;23;20015;-82
2023/05/06 08:25:41;;;;;;;17.40;15.60;;;;;;;17.10;85.37;101770.97;6100914;23;20085;-82
2023/05/06 08:28:08;;;;;;;20.05;17.25;;;;;;;17.36;82.30;101776.56;6100534;23;20018;-83
2023/05/06 08:30:35;;;;;;;18.13;16.30;;;;;;;17.42;83.59;101782.06;6100934;23;20028;-84
2023/05/06 08:33:02;;;;;;;19.95;17.80;;;;;;;17.36;82.55;101779.28;6100550;23;20015;-84
2023/05/06 08:35:28;;;;;;;20.42;17.50;;;;;;;17.29;82.24;101782.31;6100893;23;20029;-83
2023/05/06 08:37:54;;;;;;;18.90;16.77;;;;;;;17.47;82.76;101779.47;6100450;23;20019;-86
2023/05/06 08:40:22;;;;;;;18.70;16.80;;;;;;;17.55;82.52;101779.88;6075348;23;20026;-81
2023/05/06 08:42:49;;;;;;;20.48;17.65;;;;;;;17.65;80.93;101781.28;6100669;23;20026;-80
2023/05/06 08:45:16;;;;;;;18.65;16.63;;;;;;;17.83;81.49;101777.66;6100180;23;20078;-86
2023/05/06 08:47:43;;;;;;;18.92;17.02;;;;;;;17.93;81.74;101776.38;6103919;23;20045;-88
2023/05/06 08:50:10;;;;;;;21.05;16.50;;;;;;;18.01;80.75;101772.06;6105417;23;20106;-88
2023/05/06 08:52:40;;;;;;;21.10;16.80;;;;;;;17.97;79.12;101774.25;6100985;23;20047;-89
2023/05/06 08:55:08;;;;;;;17.70;15.95;;;;;;;18.04;78.38;101767.72;6101017;23;20014;-87
2023/05/06 08:57:36;;;;;;;20.60;17.27;;;;;;;18.09;79.29;101770.50;6101642;23;20018;-88
2023/05/06 09:00:03;;;;;;;18.15;16.30;;;;;;;18.09;79.04;101773.19;6078830;23;20023;-88
2023/05/06 09:02:30;;;;;;;18.25;16.30;;;;;;;18.21;80.18;101772.16;6103426;23;20019;-88
2023/05/06 09:04:56;;;;;;;24.77;17.65;;;;;;;18.28;78.54;101777.16;6104915;23;20019;-82
2023/05/06 09:07:23;;;;;;;24.70;19.45;;;;;;;18.22;77.39;101767.50;6101609;23;20018;-85
2023/05/06 09:09:50;;;;;;;25.83;20.73;;;;;;;18.27;78.60;101770.28;6100894;23;20476;-85
2023/05/06 09:12:16;;;;;;;26.58;22.65;;;;;;;18.35;78.45;101764.50;6100495;23;20019;-85
2023/05/06 09:14:43;;;;;;;30.70;24.73;;;;;;;18.27;77.43;101772.97;6100968;23;20023;-85
2023/05/06 09:17:22;;;;;;;27.83;24.70;;;;;;;18.45;77.52;101766.59;6107177;23;20011;-91
2023/05/06 09:19:53;;;;;;;26.02;21.90;;;;;;;18.66;76.12;101770.13;6077742;23;20476;-86
2023/05/06 09:22:21;;;;;;;27.13;23.40;;;;;;;18.93;77.00;101763.56;6077497;23;20026;-86
2023/05/06 09:24:55;;;;;;;21.05;18.95;;;;;;;19.08;74.39;101764.25;6108607;23;20074;-88
2023/05/06 09:27:27;;;;;;;19.70;16.73;;;;;;;19.23;75.08;101764.13;6105432;23;20439;-83
2023/05/06 09:30:10;;;;;;;17.92;13.88;;;;;;;19.36;73.26;101761.09;6084159;23;20102;-88
2023/05/06 09:32:37;;;;;;;14.93;13.43;;;;;;;19.45;72.47;101753.56;6104789;23;20019;-86
2023/05/06 09:35:07;;;;;;;15.80;14.30;;;;;;;19.65;72.98;101756.22;6106796;23;20015;-89
2023/05/06 09:37:34;;;;;;;15.35;13.82;;;;;;;19.81;71.71;101751.47;6104256;23;20019;-82
2023/05/06 09:40:00;;;;;;;16.55;14.00;;;;;;;19.89;71.18;101752.50;6103238;23;20074;-84
2023/05/06 09:42:28;;;;;;;17.42;15.63;;;;;;;19.68;70.27;101749.13;6103503;23;20018;-78
2023/05/06 09:44:57;;;;;;;18.25;16.40;;;;;;;19.57;74.19;101747.09;6103538;23;20078;-85
2023/05/06 09:47:33;;;;;;;18.35;16.55;;;;;;;19.84;71.31;101740.44;6102359;23;20330;-87
2023/05/06 09:50:03;;;;;;;17.60;15.80;;;;;;;20.27;69.56;101735.81;6078241;23;20023;-87
2023/05/06 09:52:30;;;;;;;19.40;15.50;;;;;;;20.37;67.93;101747.19;6085493;23;20015;-90
2023/05/06 09:54:58;;;;;;;20.90;15.50;;;;;;;20.23;69.46;101742.66;6104279;23;20397;-89
2023/05/06 09:57:24;;;;;;;17.98;15.77;;;;;;;20.06;68.41;101739.84;6103965;23;20047;-89
2023/05/06 09:59:52;;;;;;;22.90;16.70;;;;;;;19.84;68.83;101740.44;6102514;23;20476;-86
2023/05/06 10:02:21;;;;;;;17.10;15.13;;;;;;;20.20;66.86;101736.25;6102429;23;20019;-88
2023/05/06 10:04:49;;;;;;;17.00;15.02;;;;;;;20.42;67.49;101735.66;6104532;23;20449;-87
2023/05/06 10:07:21;;;;;;;19.92;15.52;;;;;;;20.56;66.92;101742.13;6102499;23;20444;-89
2023/05/06 10:09:48;;;;;;;19.45;15.73;;;;;;;20.68;66.81;101740.22;6079802;23;20019;-90
2023/05/06 10:12:16;;;;;;;22.15;15.50;;;;;;;20.80;65.72;101739.00;6079116;23;20477;-86
2023/05/06 10:14:43;;;;;;;18.70;15.98;;;;;;;20.90;65.77;101738.31;6104819;23;20418;-82
2023/05/06 10:17:11;;;;;;;14.35;12.85;;;;;;;20.78;63.35;101730.66;6078317;23;20018;-82
2023/05/06 10:19:45;;;;;;;16.38;13.52;;;;;;;20.87;63.28;101731.16;6102291;23;20094;-83
2023/05/06 10:22:29;;;;;;;14.63;12.25;;;;;;;21.04;62.74;101735.91;6101505;23;20026;-82
2023/05/06 10:25:04;;;;;;;14.65;13.13;;;;;;;20.90;63.30;101732.16;6101421;23;20449;-82
2023/05/06 10:27:36;;;;;;;15.98;13.88;;;;;;;20.74;62.05;101730.16;6101775;23;20045;-83
2023/05/06 10:30:04;;;;;;;16.67;14.02;;;;;;;20.86;60.86;101728.94;6101410;23;20026;-82
2023/05/06 10:32:31;;;;;;;17.10;12.70;;;;;;;20.92;61.08;101722.34;6100485;23;20327;-81
2023/05/06 10:35:08;;;;;;;13.90;12.02;;;;;;;21.07;60.37;101719.44;6099858;23;20019;-85
2023/05/06 10:37:37;;;;;;;16.02;12.60;;;;;;;21.27;59.42;101727.34;6101504;23;20015;-81
2023/05/06 10:40:04;;;;;;;16.58;12.88;;;;;;;21.66;60.29;101723.19;6100569;23;20023;-82
2023/05/06 10:42:36;;;;;;;11.50;10.38;;;;;;;21.91;58.36;101722.19;6101139;23;20421;-84
2023/05/06 10:45:04;;;;;;;13.20;10.48;;;;;;;21.75;56.92;101714.81;6101418;23;20095;-82
2023/05/06 10:47:54;;;;;;;13.90;11.07;;;;;;;21.86;57.78;101715.53;6100746;23;20018;-84
2023/05/06 10:50:25;;;;;;;12.55;8.90;;;;;;;21.74;57.87;101713.34;6101036;23;20031;-81
2023/05/06 10:52:57;;;;;;;10.88;9.68;;;;;;;21.70;56.97;101707.41;6101422;23;20019;-81
2023/05/06 10:55:29;;;;;;;9.77;8.80;;;;;;;22.01;56.90;101709.88;6101294;23;20019;-82
2023/05/06 10:58:01;;;;;;;13.18;8.15;;;;;;;21.88;55.26;101713.09;6074581;23;20019;-82
2023/05/06 11:00:31;;;;;;;8.02;7.22;;;;;;;22.06;54.94;101716.50;6101229;23;20023;-82
2023/05/06 11:03:10;;;;;;;7.63;6.88;;;;;;;22.20;54.43;101716.25;6099212;23;20025;-82
2023/05/06 11:05:47;;;;;;;9.30;6.57;;;;;;;22.43;55.26;101713.44;6100994;23;20015;-82
2023/05/06 11:08:21;;;;;;;10.52;6.47;;;;;;;22.24;53.24;101716.72;6100486;23;20023;-82
2023/05/06 11:10:47;;;;;;;6.00;5.45;;;;;;;22.05;52.19;101721.19;6101159;23;20093;-82
2023/05/06 11:13:26;;;;;;;8.13;5.95;;;;;;;21.88;53.15;101715.06;6100509;23;20071;-82
2023/05/06 11:15:55;;;;;;;10.35;6.65;;;;;;;21.83;52.29;101715.78;6075790;23;20022;-81
2023/05/06 11:18:25;;;;;;;8.38;7.20;;;;;;;21.79;53.66;101710.63;6100389;23;20041;-82